SWA1738 KMCO-KDAL
Flight info
| Callsign | SWA1738 |
|---|---|
| Flight time | 2h 37m |
| Altitude | 32000 |
| Route | RDSOX1 JFRYS DCT PATOY Q116 JAWJA DCT CABLO DCT DEFUN J2 CEW DCT AEX DCT PNUTS REDDN4 |
| Aircraft | B38M/M-SDE1FGHILORVWXY/HB1 |
Departure
| Time | 2026-05-05 00:36 |
|---|---|
| Airport | Orlando International Airport (KMCO) |
Arrival
| Time | 2026-05-05 03:14 |
|---|---|
| Airport | Dallas Love Field (KDAL) |
| Time | Latitude | Longitude | Altitude | Speed | Heading |
|---|---|---|---|---|---|
| 2026-05-04 23:56 | 28.43585 | -81.30377 | 103 ft | 0 kts | 131° |
| 2026-05-05 00:13 | 28.43596 | -81.30393 | 102 ft | 4 kts | 114° |
| 2026-05-05 00:13 | 28.43599 | -81.30420 | 101 ft | 4 kts | 66° |
| 2026-05-05 00:14 | 28.43590 | -81.30434 | 101 ft | 1 kts | 38° |
| 2026-05-05 00:26 | 28.43597 | -81.30428 | 103 ft | 3 kts | 39° |
| 2026-05-05 00:26 | 28.43623 | -81.30402 | 103 ft | 7 kts | 45° |
| 2026-05-05 00:26 | 28.43657 | -81.30354 | 103 ft | 8 kts | 52° |
| 2026-05-05 00:27 | 28.43692 | -81.30305 | 102 ft | 7 kts | 42° |
| 2026-05-05 00:27 | 28.43741 | -81.30268 | 103 ft | 10 kts | 21° |
| 2026-05-05 00:27 | 28.43820 | -81.30255 | 103 ft | 13 kts | 360° |
| 2026-05-05 00:27 | 28.43907 | -81.30289 | 104 ft | 15 kts | 292° |
| 2026-05-05 00:28 | 28.43916 | -81.30412 | 103 ft | 17 kts | 271° |
| 2026-05-05 00:28 | 28.43924 | -81.30554 | 102 ft | 19 kts | 275° |
| 2026-05-05 00:28 | 28.43932 | -81.30656 | 122 ft | 12 kts | 274° |
| 2026-05-05 00:28 | 28.43938 | -81.30779 | 125 ft | 19 kts | 275° |
| 2026-05-05 00:29 | 28.43945 | -81.30920 | 102 ft | 27 kts | 265° |
| 2026-05-05 00:29 | 28.43943 | -81.31089 | 120 ft | 19 kts | 271° |
| 2026-05-05 00:29 | 28.43932 | -81.31300 | 106 ft | 35 kts | 265° |
| 2026-05-05 00:29 | 28.43927 | -81.31535 | 104 ft | 28 kts | 269° |
| 2026-05-05 00:30 | 28.43923 | -81.31730 | 107 ft | 21 kts | 270° |
| 2026-05-05 00:30 | 28.43927 | -81.31860 | 110 ft | 12 kts | 283° |
| 2026-05-05 00:30 | 28.43960 | -81.31947 | 112 ft | 13 kts | 294° |
| 2026-05-05 00:30 | 28.43904 | -81.32004 | 113 ft | 15 kts | 179° |
| 2026-05-05 00:31 | 28.43781 | -81.31996 | 110 ft | 20 kts | 176° |
| 2026-05-05 00:31 | 28.43645 | -81.32000 | 109 ft | 19 kts | 180° |
| 2026-05-05 00:31 | 28.43493 | -81.31995 | 106 ft | 24 kts | 188° |
| 2026-05-05 00:31 | 28.43326 | -81.31995 | 103 ft | 27 kts | 179° |
| 2026-05-05 00:32 | 28.43138 | -81.31995 | 104 ft | 27 kts | 180° |
| 2026-05-05 00:32 | 28.42991 | -81.31992 | 104 ft | 22 kts | 179° |
| 2026-05-05 00:32 | 28.42861 | -81.31991 | 106 ft | 18 kts | 181° |
| 2026-05-05 00:32 | 28.42725 | -81.31990 | 110 ft | 22 kts | 179° |
| 2026-05-05 00:33 | 28.42563 | -81.31989 | 111 ft | 25 kts | 178° |
| 2026-05-05 00:33 | 28.42393 | -81.31989 | 111 ft | 21 kts | 180° |
| 2026-05-05 00:33 | 28.42239 | -81.31985 | 111 ft | 23 kts | 180° |
| 2026-05-05 00:33 | 28.42067 | -81.31982 | 108 ft | 26 kts | 178° |
| 2026-05-05 00:34 | 28.41910 | -81.31980 | 105 ft | 24 kts | 182° |
| 2026-05-05 00:34 | 28.41773 | -81.31979 | 104 ft | 20 kts | 179° |
| 2026-05-05 00:34 | 28.41696 | -81.31978 | 103 ft | 0 kts | 185° |
| 2026-05-05 00:34 | 28.41674 | -81.31980 | 102 ft | 7 kts | 183° |
| 2026-05-05 00:35 | 28.41596 | -81.31978 | 102 ft | 13 kts | 181° |
| 2026-05-05 00:35 | 28.41548 | -81.32020 | 102 ft | 10 kts | 254° |
| 2026-05-05 00:35 | 28.41543 | -81.32114 | 104 ft | 15 kts | 270° |
| 2026-05-05 00:35 | 28.41618 | -81.32201 | 104 ft | 22 kts | 1° |
| 2026-05-05 00:36 | 28.41907 | -81.32198 | 105 ft | 75 kts | 0° |
| 2026-05-05 00:36 | 28.42665 | -81.32197 | 109 ft | 141 kts | 358° |
| 2026-05-05 00:36 | 28.43816 | -81.32205 | 216 ft | 180 kts | 2° |
| 2026-05-05 00:36 | 28.45083 | -81.32226 | 935 ft | 184 kts | 4° |
| 2026-05-05 00:37 | 28.46374 | -81.32253 | 1745 ft | 188 kts | 4° |
| 2026-05-05 00:37 | 28.47708 | -81.32254 | 2498 ft | 198 kts | 5° |
| 2026-05-05 00:37 | 28.49117 | -81.32260 | 3240 ft | 204 kts | 4° |
| 2026-05-05 00:37 | 28.50526 | -81.32225 | 4061 ft | 207 kts | 12° |
| 2026-05-05 00:38 | 28.52004 | -81.32049 | 4640 ft | 219 kts | 359° |
| 2026-05-05 00:38 | 28.53467 | -81.32197 | 5689 ft | 201 kts | 348° |
| 2026-05-05 00:38 | 28.54788 | -81.32668 | 6435 ft | 203 kts | 330° |
| 2026-05-05 00:38 | 28.56099 | -81.33395 | 6784 ft | 225 kts | 330° |
| 2026-05-05 00:39 | 28.57575 | -81.34191 | 6934 ft | 244 kts | 330° |
| 2026-05-05 00:39 | 28.58903 | -81.35387 | 6773 ft | 243 kts | 300° |
| 2026-05-05 00:39 | 28.59503 | -81.37168 | 6879 ft | 248 kts | 275° |
| 2026-05-05 00:39 | 28.59591 | -81.39184 | 6914 ft | 261 kts | 270° |
| 2026-05-05 00:40 | 28.59624 | -81.41265 | 6956 ft | 267 kts | 269° |
| 2026-05-05 00:40 | 28.59635 | -81.43402 | 7363 ft | 270 kts | 269° |
| 2026-05-05 00:40 | 28.59635 | -81.45534 | 8360 ft | 270 kts | 269° |
| 2026-05-05 00:40 | 28.59626 | -81.47690 | 9254 ft | 276 kts | 269° |
| 2026-05-05 00:41 | 28.59426 | -81.49834 | 10114 ft | 279 kts | 251° |
| 2026-05-05 00:41 | 28.58652 | -81.51907 | 10714 ft | 293 kts | 247° |
| 2026-05-05 00:41 | 28.57800 | -81.54101 | 11083 ft | 314 kts | 246° |
| 2026-05-05 00:41 | 28.56876 | -81.56446 | 11409 ft | 335 kts | 246° |
| 2026-05-05 00:42 | 28.55896 | -81.58912 | 11836 ft | 349 kts | 246° |
| 2026-05-05 00:42 | 28.54876 | -81.61462 | 12461 ft | 356 kts | 246° |
| 2026-05-05 00:42 | 28.53842 | -81.64040 | 13177 ft | 361 kts | 246° |
| 2026-05-05 00:42 | 28.52792 | -81.66658 | 13849 ft | 365 kts | 246° |
| 2026-05-05 00:43 | 28.51736 | -81.69287 | 14578 ft | 366 kts | 246° |
| 2026-05-05 00:43 | 28.50672 | -81.71934 | 15171 ft | 370 kts | 246° |
| 2026-05-05 00:43 | 28.49613 | -81.74567 | 15838 ft | 371 kts | 246° |
| 2026-05-05 00:43 | 28.48536 | -81.77244 | 16492 ft | 373 kts | 246° |
| 2026-05-05 00:44 | 28.47454 | -81.79930 | 17138 ft | 375 kts | 246° |
| 2026-05-05 00:44 | 28.46366 | -81.82630 | 17765 ft | 376 kts | 247° |
| 2026-05-05 00:44 | 28.45272 | -81.85339 | 18380 ft | 378 kts | 247° |
| 2026-05-05 00:44 | 28.44547 | -81.87137 | 18727 ft | 379 kts | 247° |
| 2026-05-05 00:45 | 28.43447 | -81.89876 | 19232 ft | 381 kts | 249° |
| 2026-05-05 00:45 | 28.42787 | -81.92770 | 19711 ft | 380 kts | 266° |
| 2026-05-05 00:45 | 28.42742 | -81.95774 | 20201 ft | 382 kts | 270° |
| 2026-05-05 00:45 | 28.42746 | -81.98808 | 20671 ft | 384 kts | 271° |
| 2026-05-05 00:46 | 28.42780 | -82.02828 | 21399 ft | 385 kts | 271° |
| 2026-05-05 00:46 | 28.42820 | -82.05879 | 21866 ft | 388 kts | 272° |
| 2026-05-05 00:46 | 28.42850 | -82.07912 | 22190 ft | 389 kts | 272° |
| 2026-05-05 00:46 | 28.42896 | -82.10991 | 22661 ft | 391 kts | 272° |
| 2026-05-05 00:47 | 28.42944 | -82.14087 | 23125 ft | 393 kts | 272° |
| 2026-05-05 00:47 | 28.42991 | -82.17199 | 23568 ft | 396 kts | 272° |
| 2026-05-05 00:47 | 28.43039 | -82.20334 | 23975 ft | 397 kts | 272° |
| 2026-05-05 00:47 | 28.43085 | -82.23476 | 24372 ft | 399 kts | 272° |
| 2026-05-05 00:48 | 28.43131 | -82.26634 | 24778 ft | 401 kts | 272° |
| 2026-05-05 00:48 | 28.43177 | -82.29804 | 25189 ft | 402 kts | 272° |
| 2026-05-05 00:48 | 28.43222 | -82.32990 | 25594 ft | 404 kts | 272° |
| 2026-05-05 00:48 | 28.43267 | -82.36179 | 25984 ft | 405 kts | 272° |
| 2026-05-05 00:49 | 28.43311 | -82.39390 | 26360 ft | 407 kts | 272° |
| 2026-05-05 00:49 | 28.43461 | -82.42597 | 26679 ft | 407 kts | 281° |
| 2026-05-05 00:49 | 28.44314 | -82.45652 | 27020 ft | 408 kts | 296° |
| 2026-05-05 00:49 | 28.45920 | -82.48326 | 27387 ft | 413 kts | 310° |
| 2026-05-05 00:50 | 28.48124 | -82.50454 | 27708 ft | 421 kts | 322° |
| 2026-05-05 00:50 | 28.50559 | -82.52237 | 28061 ft | 423 kts | 323° |
| 2026-05-05 00:50 | 28.53069 | -82.54003 | 28392 ft | 426 kts | 324° |
| 2026-05-05 00:50 | 28.55610 | -82.55748 | 28746 ft | 427 kts | 324° |
| 2026-05-05 00:51 | 28.58173 | -82.57487 | 29082 ft | 429 kts | 324° |
| 2026-05-05 00:51 | 28.60750 | -82.59220 | 29410 ft | 431 kts | 324° |
| 2026-05-05 00:51 | 28.63334 | -82.60954 | 29810 ft | 431 kts | 324° |
| 2026-05-05 00:51 | 28.65915 | -82.62685 | 30268 ft | 429 kts | 324° |
| 2026-05-05 00:52 | 28.68476 | -82.64403 | 30714 ft | 426 kts | 324° |
| 2026-05-05 00:52 | 28.71015 | -82.66107 | 31200 ft | 422 kts | 325° |
| 2026-05-05 00:52 | 28.73538 | -82.67802 | 31671 ft | 419 kts | 325° |
| 2026-05-05 00:52 | 28.76042 | -82.69485 | 32044 ft | 418 kts | 325° |
| 2026-05-05 00:53 | 28.78502 | -82.71140 | 32043 ft | 414 kts | 324° |
| 2026-05-05 00:53 | 28.83453 | -82.74472 | 32054 ft | 413 kts | 324° |
| 2026-05-05 00:54 | 28.88397 | -82.77803 | 32047 ft | 413 kts | 324° |
| 2026-05-05 00:54 | 28.93306 | -82.81113 | 32042 ft | 406 kts | 324° |
| 2026-05-05 00:55 | 28.98165 | -82.84395 | 32040 ft | 406 kts | 324° |
| 2026-05-05 00:55 | 29.03028 | -82.87682 | 32033 ft | 406 kts | 324° |
| 2026-05-05 00:56 | 29.07738 | -82.91114 | 32053 ft | 403 kts | 320° |
| 2026-05-05 00:56 | 29.12294 | -82.94856 | 32035 ft | 404 kts | 320° |
| 2026-05-05 00:57 | 29.16883 | -82.98575 | 32032 ft | 404 kts | 320° |
| 2026-05-05 00:57 | 29.21473 | -83.02290 | 32031 ft | 404 kts | 320° |
| 2026-05-05 00:58 | 29.26025 | -83.05985 | 32032 ft | 404 kts | 320° |
| 2026-05-05 00:58 | 29.30592 | -83.09730 | 32031 ft | 404 kts | 320° |
| 2026-05-05 00:59 | 29.35155 | -83.13473 | 32032 ft | 403 kts | 320° |
| 2026-05-05 00:59 | 29.39716 | -83.17219 | 32043 ft | 401 kts | 320° |
| 2026-05-05 01:00 | 29.44232 | -83.20932 | 32034 ft | 399 kts | 320° |
| 2026-05-05 01:00 | 29.48715 | -83.24622 | 32131 ft | 400 kts | 320° |
| 2026-05-05 01:00 | 29.50968 | -83.26477 | 32559 ft | 398 kts | 320° |
| 2026-05-05 01:01 | 29.53207 | -83.28322 | 33010 ft | 395 kts | 320° |
| 2026-05-05 01:01 | 29.55431 | -83.30156 | 33479 ft | 391 kts | 320° |
| 2026-05-05 01:01 | 29.57628 | -83.31969 | 33959 ft | 387 kts | 320° |
| 2026-05-05 01:01 | 29.59807 | -83.33769 | 34367 ft | 384 kts | 320° |
| 2026-05-05 01:02 | 29.61972 | -83.35558 | 34627 ft | 384 kts | 320° |
| 2026-05-05 01:02 | 29.64140 | -83.37350 | 34877 ft | 384 kts | 320° |
| 2026-05-05 01:02 | 29.66312 | -83.39146 | 35156 ft | 384 kts | 320° |
| 2026-05-05 01:02 | 29.68487 | -83.40945 | 35299 ft | 387 kts | 320° |
| 2026-05-05 01:03 | 29.70676 | -83.42758 | 35454 ft | 388 kts | 320° |
| 2026-05-05 01:03 | 29.72872 | -83.44576 | 35671 ft | 389 kts | 320° |
| 2026-05-05 01:03 | 29.75037 | -83.46371 | 35870 ft | 389 kts | 320° |
| 2026-05-05 01:03 | 29.77229 | -83.48188 | 36025 ft | 389 kts | 319° |
| 2026-05-05 01:04 | 29.79427 | -83.50011 | 36050 ft | 390 kts | 319° |
| 2026-05-05 01:04 | 29.86001 | -83.55470 | 36061 ft | 385 kts | 320° |
| 2026-05-05 01:05 | 29.90314 | -83.59055 | 36059 ft | 382 kts | 320° |
| 2026-05-05 01:05 | 29.94600 | -83.62621 | 36060 ft | 382 kts | 320° |
| 2026-05-05 01:06 | 29.98915 | -83.66216 | 36072 ft | 384 kts | 320° |
| 2026-05-05 01:06 | 30.03244 | -83.69825 | 36064 ft | 384 kts | 320° |
| 2026-05-05 01:07 | 30.07579 | -83.73444 | 36060 ft | 384 kts | 320° |
| 2026-05-05 01:07 | 30.11908 | -83.77062 | 36058 ft | 384 kts | 320° |
| 2026-05-05 01:08 | 30.16192 | -83.80673 | 36051 ft | 382 kts | 316° |
| 2026-05-05 01:08 | 30.17946 | -83.82921 | 36047 ft | 375 kts | 303° |
| 2026-05-05 01:08 | 30.19474 | -83.85380 | 36038 ft | 378 kts | 304° |
| 2026-05-05 01:09 | 30.22512 | -83.90333 | 36059 ft | 378 kts | 304° |
| 2026-05-05 01:09 | 30.25487 | -83.95308 | 36043 ft | 373 kts | 304° |
| 2026-05-05 01:10 | 30.28400 | -84.00221 | 36057 ft | 374 kts | 304° |
| 2026-05-05 01:10 | 30.31334 | -84.05180 | 36049 ft | 374 kts | 304° |
| 2026-05-05 01:11 | 30.34270 | -84.10150 | 36049 ft | 374 kts | 304° |
| 2026-05-05 01:11 | 30.37201 | -84.15116 | 36054 ft | 374 kts | 304° |
| 2026-05-05 01:12 | 30.40113 | -84.20057 | 36058 ft | 374 kts | 304° |
| 2026-05-05 01:12 | 30.43037 | -84.25026 | 36051 ft | 374 kts | 304° |
| 2026-05-05 01:13 | 30.45963 | -84.30003 | 36042 ft | 373 kts | 304° |
| 2026-05-05 01:13 | 30.48858 | -84.34934 | 36049 ft | 368 kts | 304° |
| 2026-05-05 01:14 | 30.51738 | -84.39844 | 36038 ft | 368 kts | 304° |
| 2026-05-05 01:14 | 30.54599 | -84.44730 | 36039 ft | 368 kts | 304° |
| 2026-05-05 01:15 | 30.57474 | -84.49644 | 36040 ft | 368 kts | 304° |
| 2026-05-05 01:15 | 30.60349 | -84.54566 | 36038 ft | 368 kts | 304° |
| 2026-05-05 01:16 | 30.63223 | -84.59490 | 36041 ft | 368 kts | 304° |
| 2026-05-05 01:16 | 30.66094 | -84.64417 | 36040 ft | 368 kts | 304° |
| 2026-05-05 01:17 | 30.68958 | -84.69337 | 36028 ft | 366 kts | 304° |
| 2026-05-05 01:17 | 30.71786 | -84.74201 | 36030 ft | 365 kts | 304° |
| 2026-05-05 01:18 | 30.74625 | -84.79088 | 36036 ft | 365 kts | 304° |
| 2026-05-05 01:18 | 30.77062 | -84.84243 | 36004 ft | 369 kts | 287° |
| 2026-05-05 01:19 | 30.77592 | -84.90263 | 36025 ft | 378 kts | 280° |
| 2026-05-05 01:19 | 30.77883 | -84.96368 | 36049 ft | 379 kts | 279° |
| 2026-05-05 01:20 | 30.78112 | -85.02446 | 36046 ft | 379 kts | 279° |
| 2026-05-05 01:20 | 30.78322 | -85.08567 | 36045 ft | 378 kts | 279° |
| 2026-05-05 01:21 | 30.78527 | -85.14677 | 36052 ft | 378 kts | 279° |
| 2026-05-05 01:21 | 30.78728 | -85.20784 | 36055 ft | 378 kts | 279° |
| 2026-05-05 01:22 | 30.78926 | -85.26850 | 36056 ft | 378 kts | 279° |
| 2026-05-05 01:22 | 30.79121 | -85.32962 | 36040 ft | 378 kts | 279° |
| 2026-05-05 01:23 | 30.79314 | -85.39072 | 36052 ft | 378 kts | 279° |
| 2026-05-05 01:23 | 30.79504 | -85.45176 | 36045 ft | 377 kts | 279° |
| 2026-05-05 01:24 | 30.79689 | -85.51225 | 36069 ft | 376 kts | 279° |
| 2026-05-05 01:24 | 30.79873 | -85.57302 | 36071 ft | 376 kts | 279° |
| 2026-05-05 01:25 | 30.80055 | -85.63385 | 36072 ft | 376 kts | 279° |
| 2026-05-05 01:25 | 30.80231 | -85.69468 | 36073 ft | 376 kts | 279° |
| 2026-05-05 01:26 | 30.80405 | -85.75510 | 36060 ft | 376 kts | 279° |
| 2026-05-05 01:26 | 30.80577 | -85.81598 | 36048 ft | 376 kts | 279° |
| 2026-05-05 01:27 | 30.80746 | -85.87678 | 36038 ft | 376 kts | 279° |
| 2026-05-05 01:27 | 30.80913 | -85.93765 | 36052 ft | 376 kts | 279° |
| 2026-05-05 01:28 | 30.81075 | -85.99807 | 36045 ft | 376 kts | 279° |
| 2026-05-05 01:28 | 30.81237 | -86.05897 | 36042 ft | 376 kts | 279° |
| 2026-05-05 01:29 | 30.81396 | -86.11974 | 36040 ft | 376 kts | 279° |
| 2026-05-05 01:29 | 30.81539 | -86.18061 | 36027 ft | 376 kts | 279° |
| 2026-05-05 01:30 | 30.81679 | -86.24095 | 36055 ft | 374 kts | 279° |
| 2026-05-05 01:30 | 30.81817 | -86.30142 | 36073 ft | 374 kts | 279° |
| 2026-05-05 01:31 | 30.81953 | -86.36203 | 36078 ft | 375 kts | 279° |
| 2026-05-05 01:31 | 30.82086 | -86.42256 | 36082 ft | 374 kts | 279° |
| 2026-05-05 01:32 | 30.82215 | -86.48276 | 36084 ft | 375 kts | 279° |
| 2026-05-05 01:32 | 30.82342 | -86.54332 | 36082 ft | 375 kts | 279° |
| 2026-05-05 01:33 | 30.82467 | -86.60387 | 36074 ft | 374 kts | 279° |
| 2026-05-05 01:33 | 30.82589 | -86.66425 | 36077 ft | 373 kts | 279° |
| 2026-05-05 01:34 | 30.83142 | -86.72355 | 36089 ft | 369 kts | 284° |
| 2026-05-05 01:34 | 30.83726 | -86.78239 | 36065 ft | 368 kts | 283° |
| 2026-05-05 01:35 | 30.84296 | -86.84171 | 36049 ft | 369 kts | 283° |
| 2026-05-05 01:35 | 30.84861 | -86.90107 | 36049 ft | 369 kts | 283° |
| 2026-05-05 01:36 | 30.85422 | -86.96044 | 36026 ft | 369 kts | 283° |
| 2026-05-05 01:36 | 30.85976 | -87.01926 | 36045 ft | 368 kts | 283° |
| 2026-05-05 01:37 | 30.86531 | -87.07844 | 36047 ft | 368 kts | 283° |
| 2026-05-05 01:37 | 30.87083 | -87.13770 | 36044 ft | 368 kts | 283° |
| 2026-05-05 01:38 | 30.87632 | -87.19691 | 36022 ft | 368 kts | 283° |
| 2026-05-05 01:38 | 30.88179 | -87.25617 | 36040 ft | 368 kts | 283° |
| 2026-05-05 01:39 | 30.88720 | -87.31505 | 36034 ft | 368 kts | 283° |
| 2026-05-05 01:39 | 30.89260 | -87.37425 | 36032 ft | 368 kts | 283° |
| 2026-05-05 01:40 | 30.89798 | -87.43345 | 36039 ft | 367 kts | 283° |
| 2026-05-05 01:40 | 30.90330 | -87.49222 | 36040 ft | 368 kts | 283° |
| 2026-05-05 01:41 | 30.90862 | -87.55142 | 36042 ft | 368 kts | 283° |
| 2026-05-05 01:41 | 30.91392 | -87.61057 | 36056 ft | 368 kts | 283° |
| 2026-05-05 01:42 | 30.91919 | -87.66978 | 36055 ft | 368 kts | 283° |
| 2026-05-05 01:42 | 30.92443 | -87.72900 | 36046 ft | 367 kts | 283° |
| 2026-05-05 01:43 | 30.92961 | -87.78780 | 36057 ft | 367 kts | 283° |
| 2026-05-05 01:43 | 30.93480 | -87.84695 | 36057 ft | 367 kts | 283° |
| 2026-05-05 01:44 | 30.93996 | -87.90619 | 36061 ft | 367 kts | 283° |
| 2026-05-05 01:44 | 30.94509 | -87.96539 | 36064 ft | 367 kts | 283° |
| 2026-05-05 01:45 | 30.95016 | -88.02412 | 36051 ft | 367 kts | 283° |
| 2026-05-05 01:45 | 30.95522 | -88.08310 | 36047 ft | 367 kts | 283° |
| 2026-05-05 01:46 | 30.96026 | -88.14220 | 36043 ft | 367 kts | 283° |
| 2026-05-05 01:46 | 30.96527 | -88.20130 | 36048 ft | 366 kts | 283° |
| 2026-05-05 01:47 | 30.97022 | -88.25997 | 36049 ft | 366 kts | 283° |
| 2026-05-05 01:47 | 30.97519 | -88.31909 | 36051 ft | 366 kts | 283° |
| 2026-05-05 01:48 | 30.98012 | -88.37817 | 36045 ft | 367 kts | 283° |
| 2026-05-05 01:48 | 30.98503 | -88.43730 | 36046 ft | 367 kts | 283° |
| 2026-05-05 01:49 | 30.98991 | -88.49644 | 36035 ft | 366 kts | 282° |
| 2026-05-05 01:49 | 30.99473 | -88.55515 | 36044 ft | 366 kts | 282° |
| 2026-05-05 01:50 | 30.99954 | -88.61420 | 36048 ft | 366 kts | 282° |
| 2026-05-05 01:50 | 31.00434 | -88.67333 | 36035 ft | 366 kts | 282° |
| 2026-05-05 01:51 | 31.00911 | -88.73245 | 36037 ft | 366 kts | 282° |
| 2026-05-05 01:51 | 31.01382 | -88.79118 | 36033 ft | 366 kts | 282° |
| 2026-05-05 01:52 | 31.01854 | -88.85028 | 36038 ft | 366 kts | 282° |
| 2026-05-05 01:52 | 31.02322 | -88.90941 | 36034 ft | 366 kts | 282° |
| 2026-05-05 01:53 | 31.02789 | -88.96853 | 36033 ft | 366 kts | 282° |
| 2026-05-05 01:53 | 31.03248 | -89.02718 | 36029 ft | 366 kts | 282° |
| 2026-05-05 01:54 | 31.03709 | -89.08627 | 36020 ft | 366 kts | 282° |
| 2026-05-05 01:54 | 31.04166 | -89.14539 | 36020 ft | 366 kts | 282° |
| 2026-05-05 01:55 | 31.04621 | -89.20446 | 36021 ft | 366 kts | 282° |
| 2026-05-05 01:55 | 31.05070 | -89.26315 | 36009 ft | 366 kts | 282° |
| 2026-05-05 01:56 | 31.05520 | -89.32222 | 36016 ft | 365 kts | 282° |
| 2026-05-05 01:56 | 31.05966 | -89.38127 | 36020 ft | 365 kts | 282° |
| 2026-05-05 01:57 | 31.06409 | -89.44028 | 36022 ft | 366 kts | 282° |
| 2026-05-05 01:57 | 31.06848 | -89.49900 | 36020 ft | 366 kts | 282° |
| 2026-05-05 01:58 | 31.07286 | -89.55806 | 36015 ft | 366 kts | 282° |
| 2026-05-05 01:58 | 31.07722 | -89.61713 | 36019 ft | 366 kts | 282° |
| 2026-05-05 01:59 | 31.08155 | -89.67619 | 36014 ft | 365 kts | 282° |
| 2026-05-05 01:59 | 31.08582 | -89.73484 | 36012 ft | 365 kts | 282° |
| 2026-05-05 02:00 | 31.09009 | -89.79387 | 36015 ft | 365 kts | 282° |
| 2026-05-05 02:00 | 31.09434 | -89.85299 | 36012 ft | 365 kts | 282° |
| 2026-05-05 02:01 | 31.09856 | -89.91210 | 36011 ft | 366 kts | 282° |
| 2026-05-05 02:01 | 31.10276 | -89.97120 | 36012 ft | 366 kts | 282° |
| 2026-05-05 02:02 | 31.10690 | -90.02997 | 36000 ft | 365 kts | 281° |
| 2026-05-05 02:02 | 31.11104 | -90.08904 | 36005 ft | 365 kts | 281° |
| 2026-05-05 02:03 | 31.11515 | -90.14807 | 36005 ft | 365 kts | 281° |
| 2026-05-05 02:03 | 31.11923 | -90.20711 | 36004 ft | 365 kts | 281° |
| 2026-05-05 02:04 | 31.12325 | -90.26573 | 36002 ft | 365 kts | 281° |
| 2026-05-05 02:04 | 31.12728 | -90.32475 | 36004 ft | 365 kts | 281° |
| 2026-05-05 02:05 | 31.13129 | -90.38385 | 35976 ft | 365 kts | 281° |
| 2026-05-05 02:05 | 31.13527 | -90.44310 | 36005 ft | 367 kts | 281° |
| 2026-05-05 02:06 | 31.13921 | -90.50199 | 35998 ft | 366 kts | 281° |
| 2026-05-05 02:06 | 31.14314 | -90.56132 | 35998 ft | 366 kts | 281° |
| 2026-05-05 02:07 | 31.14705 | -90.62059 | 35992 ft | 367 kts | 281° |
| 2026-05-05 02:07 | 31.15094 | -90.67995 | 35994 ft | 367 kts | 281° |
| 2026-05-05 02:08 | 31.15480 | -90.73934 | 35995 ft | 367 kts | 281° |
| 2026-05-05 02:08 | 31.15859 | -90.79827 | 35996 ft | 366 kts | 281° |
| 2026-05-05 02:09 | 31.16240 | -90.85762 | 35992 ft | 366 kts | 281° |
| 2026-05-05 02:09 | 31.16616 | -90.91690 | 35993 ft | 366 kts | 281° |
| 2026-05-05 02:10 | 31.16991 | -90.97629 | 35991 ft | 366 kts | 281° |
| 2026-05-05 02:10 | 31.17361 | -91.03521 | 35992 ft | 366 kts | 281° |
| 2026-05-05 02:11 | 31.17730 | -91.09455 | 35992 ft | 366 kts | 281° |
| 2026-05-05 02:11 | 31.18096 | -91.15386 | 35983 ft | 367 kts | 280° |
| 2026-05-05 02:12 | 31.18640 | -91.24292 | 35980 ft | 366 kts | 280° |
| 2026-05-05 02:13 | 31.18998 | -91.30189 | 35980 ft | 366 kts | 280° |
| 2026-05-05 02:13 | 31.19354 | -91.36126 | 35984 ft | 367 kts | 280° |
| 2026-05-05 02:14 | 31.19709 | -91.42066 | 35984 ft | 367 kts | 280° |
| 2026-05-05 02:14 | 31.20060 | -91.48005 | 35975 ft | 366 kts | 280° |
| 2026-05-05 02:15 | 31.20408 | -91.53938 | 35963 ft | 366 kts | 280° |
| 2026-05-05 02:15 | 31.20752 | -91.59837 | 35975 ft | 367 kts | 280° |
| 2026-05-05 02:16 | 31.21096 | -91.65779 | 35975 ft | 367 kts | 280° |
| 2026-05-05 02:16 | 31.21437 | -91.71722 | 35968 ft | 367 kts | 280° |
| 2026-05-05 02:17 | 31.21775 | -91.77665 | 35969 ft | 367 kts | 280° |
| 2026-05-05 02:17 | 31.22107 | -91.83565 | 35965 ft | 367 kts | 280° |
| 2026-05-05 02:18 | 31.22440 | -91.89505 | 35967 ft | 367 kts | 280° |
| 2026-05-05 02:18 | 31.22770 | -91.95453 | 35965 ft | 367 kts | 280° |
| 2026-05-05 02:19 | 31.23099 | -92.01405 | 35979 ft | 366 kts | 280° |
| 2026-05-05 02:19 | 31.23422 | -92.07291 | 35971 ft | 366 kts | 280° |
| 2026-05-05 02:20 | 31.23744 | -92.13225 | 35968 ft | 366 kts | 279° |
| 2026-05-05 02:20 | 31.24064 | -92.19156 | 35950 ft | 366 kts | 279° |
| 2026-05-05 02:21 | 31.24381 | -92.25092 | 35948 ft | 366 kts | 279° |
| 2026-05-05 02:21 | 31.24693 | -92.30984 | 35929 ft | 366 kts | 279° |
| 2026-05-05 02:22 | 31.25005 | -92.36931 | 35946 ft | 367 kts | 279° |
| 2026-05-05 02:22 | 31.25315 | -92.42879 | 35943 ft | 366 kts | 279° |
| 2026-05-05 02:23 | 31.25652 | -92.48816 | 35938 ft | 364 kts | 284° |
| 2026-05-05 02:23 | 31.27229 | -92.54281 | 35925 ft | 359 kts | 293° |
| 2026-05-05 02:24 | 31.29026 | -92.59713 | 35945 ft | 358 kts | 294° |
| 2026-05-05 02:24 | 31.30858 | -92.65132 | 35942 ft | 358 kts | 294° |
| 2026-05-05 02:25 | 31.32685 | -92.70510 | 35935 ft | 359 kts | 294° |
| 2026-05-05 02:25 | 31.34525 | -92.75934 | 35944 ft | 359 kts | 294° |
| 2026-05-05 02:26 | 31.36364 | -92.81360 | 35965 ft | 359 kts | 294° |
| 2026-05-05 02:26 | 31.38200 | -92.86788 | 35959 ft | 359 kts | 294° |
| 2026-05-05 02:27 | 31.40033 | -92.92215 | 35952 ft | 359 kts | 294° |
| 2026-05-05 02:27 | 31.41854 | -92.97615 | 35951 ft | 359 kts | 293° |
| 2026-05-05 02:28 | 31.43684 | -93.03049 | 35952 ft | 359 kts | 293° |
| 2026-05-05 02:28 | 31.45512 | -93.08489 | 35940 ft | 359 kts | 293° |
| 2026-05-05 02:29 | 31.47339 | -93.13932 | 35942 ft | 359 kts | 293° |
| 2026-05-05 02:29 | 31.49152 | -93.19345 | 35972 ft | 358 kts | 293° |
| 2026-05-05 02:30 | 31.50965 | -93.24766 | 35935 ft | 357 kts | 293° |
| 2026-05-05 02:30 | 31.52775 | -93.30186 | 35934 ft | 357 kts | 293° |
| 2026-05-05 02:31 | 31.54583 | -93.35612 | 35931 ft | 357 kts | 293° |
| 2026-05-05 02:31 | 31.56377 | -93.41003 | 35932 ft | 357 kts | 293° |
| 2026-05-05 02:32 | 31.58181 | -93.46428 | 35933 ft | 357 kts | 293° |
| 2026-05-05 02:32 | 31.59984 | -93.51861 | 35922 ft | 357 kts | 293° |
| 2026-05-05 02:33 | 31.61889 | -93.57239 | 35926 ft | 357 kts | 294° |
| 2026-05-05 02:33 | 31.63804 | -93.62572 | 35924 ft | 357 kts | 294° |
| 2026-05-05 02:34 | 31.65727 | -93.67946 | 35925 ft | 357 kts | 294° |
| 2026-05-05 02:34 | 31.67647 | -93.73323 | 35925 ft | 357 kts | 294° |
| 2026-05-05 02:35 | 31.69566 | -93.78704 | 35920 ft | 357 kts | 294° |
| 2026-05-05 02:35 | 31.71468 | -93.84048 | 35906 ft | 357 kts | 294° |
| 2026-05-05 02:36 | 31.73384 | -93.89436 | 35911 ft | 357 kts | 294° |
| 2026-05-05 02:36 | 31.75294 | -93.94818 | 35914 ft | 356 kts | 294° |
| 2026-05-05 02:37 | 31.77182 | -94.00148 | 35910 ft | 356 kts | 294° |
| 2026-05-05 02:37 | 31.79080 | -94.05511 | 35902 ft | 356 kts | 294° |
| 2026-05-05 02:38 | 31.80977 | -94.10884 | 35900 ft | 356 kts | 294° |
| 2026-05-05 02:38 | 31.82873 | -94.16258 | 35896 ft | 356 kts | 294° |
| 2026-05-05 02:39 | 31.84752 | -94.21596 | 35874 ft | 356 kts | 293° |
| 2026-05-05 02:39 | 31.86646 | -94.26986 | 35895 ft | 357 kts | 293° |
| 2026-05-05 02:40 | 31.88538 | -94.32377 | 35903 ft | 356 kts | 293° |
| 2026-05-05 02:40 | 31.90424 | -94.37760 | 35880 ft | 356 kts | 293° |
| 2026-05-05 02:41 | 31.92312 | -94.43156 | 35872 ft | 356 kts | 293° |
| 2026-05-05 02:41 | 31.94185 | -94.48514 | 35869 ft | 356 kts | 293° |
| 2026-05-05 02:42 | 31.95749 | -94.54048 | 35897 ft | 357 kts | 289° |
| 2026-05-05 02:42 | 31.97231 | -94.59634 | 35868 ft | 357 kts | 289° |
| 2026-05-05 02:43 | 31.98729 | -94.65228 | 35873 ft | 358 kts | 289° |
| 2026-05-05 02:43 | 32.00211 | -94.70762 | 35875 ft | 355 kts | 289° |
| 2026-05-05 02:44 | 32.01694 | -94.76308 | 35884 ft | 355 kts | 289° |
| 2026-05-05 02:44 | 32.03176 | -94.81863 | 35882 ft | 355 kts | 289° |
| 2026-05-05 02:45 | 32.04655 | -94.87416 | 35892 ft | 355 kts | 289° |
| 2026-05-05 02:45 | 32.06121 | -94.92936 | 35887 ft | 355 kts | 289° |
| 2026-05-05 02:46 | 32.07595 | -94.98492 | 35877 ft | 355 kts | 289° |
| 2026-05-05 02:46 | 32.08331 | -95.01271 | 35712 ft | 352 kts | 289° |
| 2026-05-05 02:46 | 32.09059 | -95.04021 | 35045 ft | 352 kts | 289° |
| 2026-05-05 02:46 | 32.09786 | -95.06772 | 34447 ft | 350 kts | 289° |
| 2026-05-05 02:47 | 32.10507 | -95.09502 | 33882 ft | 347 kts | 289° |
| 2026-05-05 02:47 | 32.11216 | -95.12189 | 33251 ft | 352 kts | 289° |
| 2026-05-05 02:47 | 32.11953 | -95.14985 | 32613 ft | 361 kts | 289° |
| 2026-05-05 02:47 | 32.12704 | -95.17838 | 31996 ft | 367 kts | 289° |
| 2026-05-05 02:48 | 32.13466 | -95.20737 | 31370 ft | 372 kts | 289° |
| 2026-05-05 02:48 | 32.14239 | -95.23679 | 30739 ft | 377 kts | 289° |
| 2026-05-05 02:48 | 32.15017 | -95.26643 | 30327 ft | 375 kts | 289° |
| 2026-05-05 02:48 | 32.15775 | -95.29532 | 30145 ft | 362 kts | 289° |
| 2026-05-05 02:49 | 32.16508 | -95.32326 | 30000 ft | 350 kts | 289° |
| 2026-05-05 02:49 | 32.17220 | -95.35007 | 29470 ft | 345 kts | 289° |
| 2026-05-05 02:49 | 32.17944 | -95.37727 | 28816 ft | 350 kts | 289° |
| 2026-05-05 02:49 | 32.18675 | -95.40474 | 28277 ft | 353 kts | 289° |
| 2026-05-05 02:50 | 32.19410 | -95.43242 | 27727 ft | 353 kts | 289° |
| 2026-05-05 02:50 | 32.20141 | -95.45995 | 27184 ft | 351 kts | 289° |
| 2026-05-05 02:50 | 32.20867 | -95.48732 | 26635 ft | 348 kts | 289° |
| 2026-05-05 02:50 | 32.21587 | -95.51451 | 26095 ft | 347 kts | 289° |
| 2026-05-05 02:51 | 32.22305 | -95.54166 | 25553 ft | 345 kts | 289° |
| 2026-05-05 02:51 | 32.23020 | -95.56868 | 25049 ft | 345 kts | 289° |
| 2026-05-05 02:51 | 32.23724 | -95.59534 | 24490 ft | 345 kts | 289° |
| 2026-05-05 02:51 | 32.24437 | -95.62236 | 23931 ft | 345 kts | 289° |
| 2026-05-05 02:52 | 32.25150 | -95.64939 | 23389 ft | 345 kts | 288° |
| 2026-05-05 02:52 | 32.25863 | -95.67650 | 22741 ft | 344 kts | 288° |
| 2026-05-05 02:52 | 32.26565 | -95.70317 | 22176 ft | 335 kts | 288° |
| 2026-05-05 02:52 | 32.27249 | -95.72919 | 21644 ft | 330 kts | 288° |
| 2026-05-05 02:53 | 32.27931 | -95.75512 | 21120 ft | 330 kts | 288° |
| 2026-05-05 02:53 | 32.28602 | -95.78072 | 20612 ft | 331 kts | 288° |
| 2026-05-05 02:53 | 32.29283 | -95.80669 | 20087 ft | 332 kts | 288° |
| 2026-05-05 02:53 | 32.29966 | -95.83276 | 19567 ft | 333 kts | 287° |
| 2026-05-05 02:54 | 32.30651 | -95.85897 | 19034 ft | 335 kts | 287° |
| 2026-05-05 02:54 | 32.31342 | -95.88540 | 18503 ft | 337 kts | 287° |
| 2026-05-05 02:54 | 32.32036 | -95.91197 | 17946 ft | 340 kts | 287° |
| 2026-05-05 02:54 | 32.32735 | -95.93874 | 17349 ft | 342 kts | 287° |
| 2026-05-05 02:55 | 32.33438 | -95.96570 | 16788 ft | 343 kts | 287° |
| 2026-05-05 02:55 | 32.34131 | -95.99233 | 16255 ft | 344 kts | 287° |
| 2026-05-05 02:55 | 32.34835 | -96.01937 | 15713 ft | 344 kts | 287° |
| 2026-05-05 02:55 | 32.35540 | -96.04648 | 15175 ft | 345 kts | 287° |
| 2026-05-05 02:56 | 32.36245 | -96.07363 | 14638 ft | 346 kts | 287° |
| 2026-05-05 02:56 | 32.36947 | -96.10074 | 14061 ft | 340 kts | 287° |
| 2026-05-05 02:56 | 32.37627 | -96.12697 | 13554 ft | 329 kts | 287° |
| 2026-05-05 02:56 | 32.38286 | -96.15242 | 13016 ft | 318 kts | 287° |
| 2026-05-05 02:57 | 32.38921 | -96.17699 | 12608 ft | 305 kts | 286° |
| 2026-05-05 02:57 | 32.39530 | -96.20055 | 12183 ft | 294 kts | 286° |
| 2026-05-05 02:57 | 32.40112 | -96.22305 | 11747 ft | 286 kts | 286° |
| 2026-05-05 02:57 | 32.40692 | -96.24554 | 11314 ft | 286 kts | 286° |
| 2026-05-05 02:58 | 32.41273 | -96.26809 | 10849 ft | 288 kts | 285° |
| 2026-05-05 02:58 | 32.41859 | -96.29082 | 10396 ft | 290 kts | 285° |
| 2026-05-05 02:58 | 32.42447 | -96.31368 | 9935 ft | 292 kts | 285° |
| 2026-05-05 02:58 | 32.43041 | -96.33673 | 9448 ft | 294 kts | 285° |
| 2026-05-05 02:59 | 32.43691 | -96.35971 | 9009 ft | 295 kts | 294° |
| 2026-05-05 02:59 | 32.44964 | -96.37845 | 8779 ft | 294 kts | 318° |
| 2026-05-05 02:59 | 32.46625 | -96.39144 | 8708 ft | 284 kts | 322° |
| 2026-05-05 02:59 | 32.48233 | -96.40405 | 8650 ft | 271 kts | 321° |
| 2026-05-05 03:00 | 32.49771 | -96.41612 | 8582 ft | 260 kts | 321° |
| 2026-05-05 03:00 | 32.51244 | -96.42765 | 8514 ft | 247 kts | 321° |
| 2026-05-05 03:00 | 32.52663 | -96.43876 | 8451 ft | 246 kts | 321° |
| 2026-05-05 03:00 | 32.54130 | -96.45025 | 8415 ft | 258 kts | 321° |
| 2026-05-05 03:01 | 32.55637 | -96.46204 | 8293 ft | 260 kts | 321° |
| 2026-05-05 03:01 | 32.57165 | -96.47387 | 8109 ft | 264 kts | 322° |
| 2026-05-05 03:01 | 32.58698 | -96.48547 | 7884 ft | 266 kts | 322° |
| 2026-05-05 03:01 | 32.60258 | -96.49729 | 7634 ft | 265 kts | 322° |
| 2026-05-05 03:02 | 32.61807 | -96.50904 | 7422 ft | 264 kts | 322° |
| 2026-05-05 03:02 | 32.63360 | -96.52084 | 7209 ft | 265 kts | 322° |
| 2026-05-05 03:02 | 32.64912 | -96.53264 | 7027 ft | 265 kts | 322° |
| 2026-05-05 03:02 | 32.66464 | -96.54445 | 6805 ft | 265 kts | 322° |
| 2026-05-05 03:03 | 32.68017 | -96.55627 | 6600 ft | 265 kts | 322° |
| 2026-05-05 03:03 | 32.69571 | -96.56809 | 6378 ft | 265 kts | 323° |
| 2026-05-05 03:03 | 32.71122 | -96.57991 | 6173 ft | 265 kts | 323° |
| 2026-05-05 03:03 | 32.72676 | -96.59175 | 5957 ft | 265 kts | 322° |
| 2026-05-05 03:04 | 32.74149 | -96.60411 | 5739 ft | 261 kts | 313° |
| 2026-05-05 03:04 | 32.75475 | -96.61868 | 5525 ft | 260 kts | 311° |
| 2026-05-05 03:04 | 32.76801 | -96.63310 | 5331 ft | 261 kts | 312° |
| 2026-05-05 03:04 | 32.78148 | -96.64757 | 5115 ft | 261 kts | 312° |
| 2026-05-05 03:05 | 32.79501 | -96.66198 | 4904 ft | 261 kts | 311° |
| 2026-05-05 03:05 | 32.80857 | -96.67634 | 4692 ft | 260 kts | 311° |
| 2026-05-05 03:05 | 32.82195 | -96.69078 | 4477 ft | 260 kts | 310° |
| 2026-05-05 03:05 | 32.83532 | -96.70533 | 4249 ft | 261 kts | 310° |
| 2026-05-05 03:06 | 32.84878 | -96.71997 | 4032 ft | 262 kts | 310° |
| 2026-05-05 03:06 | 32.86207 | -96.73443 | 3814 ft | 263 kts | 309° |
| 2026-05-05 03:06 | 32.87561 | -96.74918 | 3650 ft | 265 kts | 310° |
| 2026-05-05 03:06 | 32.88926 | -96.76400 | 3414 ft | 267 kts | 310° |
| 2026-05-05 03:07 | 32.90296 | -96.77891 | 3193 ft | 268 kts | 309° |
| 2026-05-05 03:07 | 32.91663 | -96.79375 | 2961 ft | 259 kts | 309° |
| 2026-05-05 03:07 | 32.92956 | -96.80770 | 2707 ft | 243 kts | 308° |
| 2026-05-05 03:07 | 32.94174 | -96.82084 | 2493 ft | 231 kts | 307° |
| 2026-05-05 03:08 | 32.95353 | -96.83361 | 2283 ft | 228 kts | 308° |
| 2026-05-05 03:08 | 32.96498 | -96.84602 | 2049 ft | 222 kts | 310° |
| 2026-05-05 03:08 | 32.97383 | -96.85960 | 1895 ft | 190 kts | 279° |
| 2026-05-05 03:08 | 32.97444 | -96.87328 | 1783 ft | 149 kts | 243° |
| 2026-05-05 03:09 | 32.97061 | -96.88405 | 1935 ft | 138 kts | 232° |
| 2026-05-05 03:09 | 32.96587 | -96.89388 | 2001 ft | 135 kts | 231° |
| 2026-05-05 03:09 | 32.96109 | -96.90348 | 1943 ft | 134 kts | 231° |
| 2026-05-05 03:09 | 32.95631 | -96.91309 | 1866 ft | 136 kts | 230° |
| 2026-05-05 03:10 | 32.95172 | -96.92288 | 1885 ft | 135 kts | 231° |
| 2026-05-05 03:10 | 32.94706 | -96.93257 | 1887 ft | 134 kts | 226° |
| 2026-05-05 03:10 | 32.93996 | -96.93816 | 1832 ft | 123 kts | 194° |
| 2026-05-05 03:10 | 32.93148 | -96.94052 | 1901 ft | 128 kts | 191° |
| 2026-05-05 03:11 | 32.92265 | -96.94105 | 1866 ft | 131 kts | 166° |
| 2026-05-05 03:11 | 32.91485 | -96.93520 | 1874 ft | 135 kts | 153° |
| 2026-05-05 03:11 | 32.90736 | -96.92807 | 1937 ft | 139 kts | 148° |
| 2026-05-05 03:11 | 32.90017 | -96.92021 | 1784 ft | 140 kts | 146° |
| 2026-05-05 03:12 | 32.89319 | -96.91216 | 1685 ft | 141 kts | 145° |
| 2026-05-05 03:12 | 32.88628 | -96.90410 | 1489 ft | 141 kts | 143° |
| 2026-05-05 03:12 | 32.87912 | -96.89579 | 1302 ft | 146 kts | 140° |
| 2026-05-05 03:12 | 32.87192 | -96.88742 | 1250 ft | 145 kts | 139° |
| 2026-05-05 03:13 | 32.86460 | -96.87897 | 831 ft | 147 kts | 140° |
| 2026-05-05 03:13 | 32.85729 | -96.87039 | 706 ft | 149 kts | 136° |
| 2026-05-05 03:13 | 32.84999 | -96.86176 | 500 ft | 147 kts | 138° |
| 2026-05-05 03:13 | 32.84371 | -96.85462 | 487 ft | 99 kts | 136° |
| 2026-05-05 03:14 | 32.84043 | -96.85085 | 493 ft | 40 kts | 127° |
| 2026-05-05 03:14 | 32.84099 | -96.84964 | 490 ft | 22 kts | 322° |
| 2026-05-05 03:14 | 32.84218 | -96.85108 | 487 ft | 27 kts | 324° |
| 2026-05-05 03:14 | 32.84356 | -96.85268 | 487 ft | 29 kts | 317° |
| 2026-05-05 03:15 | 32.84537 | -96.85330 | 481 ft | 22 kts | 49° |
| 2026-05-05 03:15 | 32.84597 | -96.85233 | 486 ft | 1 kts | 81° |